createdAt,value
2019-06-26T00:00:56.196Z,3.50
2019-06-26T00:03:26.450Z,4.00
2019-06-26T00:05:56.826Z,4.03
2019-06-26T00:08:27.330Z,3.60
2019-06-26T00:10:57.996Z,3.50
2019-06-26T00:13:28.834Z,4.42
2019-06-26T00:15:59.124Z,4.00
2019-06-26T00:18:29.901Z,3.23
2019-06-26T00:21:00.224Z,3.60
2019-06-26T00:23:30.882Z,3.75
2019-06-26T00:26:01.387Z,4.47
2019-06-26T00:28:31.644Z,4.17
2019-06-26T00:31:02.207Z,4.28
2019-06-26T00:33:32.390Z,3.35
2019-06-26T00:36:02.656Z,4.67
2019-06-26T00:38:33.106Z,3.65
2019-06-26T00:43:42.900Z,4.53
2019-06-26T00:46:14.788Z,3.87
2019-06-26T00:48:45.278Z,3.90
2019-06-26T00:51:15.657Z,3.98
2019-06-26T00:53:46.550Z,3.50
2019-06-26T00:56:16.831Z,3.62
2019-06-26T00:58:47.382Z,3.92
2019-06-26T01:01:18.008Z,3.33
2019-06-26T01:03:50.032Z,3.70
2019-06-26T01:06:37.952Z,3.65
2019-06-26T01:09:09.231Z,3.90
2019-06-26T01:11:39.495Z,4.00
2019-06-26T01:14:09.785Z,4.53
2019-06-26T01:16:40.098Z,3.70
2019-06-26T01:19:10.293Z,3.98
2019-06-26T01:21:40.598Z,3.77
2019-06-26T01:24:10.855Z,3.72
2019-06-26T01:26:41.392Z,4.20
2019-06-26T01:29:12.235Z,3.98
2019-06-26T01:31:42.859Z,4.17
2019-06-26T01:34:13.080Z,4.20
2019-06-26T01:36:43.256Z,3.83
2019-06-26T01:39:13.636Z,3.15
2019-06-26T01:41:43.854Z,3.80
2019-06-26T01:44:15.672Z,3.52
2019-06-26T01:46:45.961Z,3.70
2019-06-26T01:49:16.832Z,4.03
2019-06-26T01:51:47.373Z,4.20
2019-06-26T01:54:17.898Z,4.10
2019-06-26T01:56:48.158Z,4.08
2019-06-26T01:59:18.847Z,4.87
2019-06-26T02:01:49.128Z,4.10
2019-06-26T02:04:20.496Z,4.70
2019-06-26T02:06:51.175Z,4.53
2019-06-26T02:09:21.473Z,4.90
2019-06-26T02:11:51.710Z,4.95
2019-06-26T02:14:31.024Z,4.40
2019-06-26T02:19:36.364Z,4.53
2019-06-26T02:22:06.849Z,5.08
2019-06-26T02:24:37.075Z,4.50
2019-06-26T02:27:07.779Z,4.17
2019-06-26T02:29:38.400Z,3.95
2019-06-26T02:32:08.978Z,4.33
2019-06-26T02:34:39.763Z,4.12
2019-06-26T02:37:10.015Z,4.05
2019-06-26T02:39:40.303Z,4.40
2019-06-26T02:42:10.567Z,4.78
2019-06-26T02:44:53.092Z,4.10
2019-06-26T02:47:20.037Z,4.42
2019-06-26T02:49:45.201Z,3.67
2019-06-26T02:52:15.555Z,4.40
2019-06-26T02:54:45.905Z,3.72
2019-06-26T02:57:16.108Z,4.40
2019-06-26T02:59:46.651Z,4.17
2019-06-26T03:02:17.296Z,4.20
2019-06-26T03:04:47.860Z,4.50
2019-06-26T03:07:18.964Z,4.17
2019-06-26T03:09:49.193Z,4.47
2019-06-26T03:12:19.484Z,4.33
2019-06-26T03:14:49.756Z,4.33
2019-06-26T03:17:20.107Z,4.62
2019-06-26T03:19:50.494Z,4.30
2019-06-26T03:22:20.916Z,4.30
2019-06-26T03:24:51.161Z,4.20
2019-06-26T03:27:22.104Z,4.55
2019-06-26T03:29:52.670Z,4.47
2019-06-26T03:32:22.912Z,4.83
2019-06-26T03:34:53.626Z,4.08
2019-06-26T03:37:23.828Z,4.50
2019-06-26T03:39:54.138Z,4.40
2019-06-26T03:42:24.672Z,4.30
2019-06-26T03:44:54.976Z,4.80
2019-06-26T03:47:25.993Z,4.62
2019-06-26T03:49:56.459Z,5.22
2019-06-26T03:52:27.019Z,4.97
2019-06-26T03:54:57.654Z,4.53
2019-06-26T03:57:27.968Z,4.90
2019-06-26T03:59:58.422Z,4.47
2019-06-26T04:02:28.987Z,4.72
2019-06-26T04:04:59.477Z,4.70
2019-06-26T04:07:29.772Z,4.53
2019-06-26T04:10:00.234Z,3.83
2019-06-26T04:12:31.204Z,4.55
2019-06-26T04:15:02.819Z,4.78
2019-06-26T04:17:34.688Z,4.58
2019-06-26T04:20:05.954Z,4.20
2019-06-26T04:22:36.189Z,4.33
2019-06-26T04:25:07.608Z,4.20
2019-06-26T04:27:38.845Z,4.12
2019-06-26T04:30:11.249Z,4.33
2019-06-26T04:32:40.353Z,4.33
2019-06-26T04:35:10.995Z,4.00
2019-06-26T04:37:41.286Z,4.03
2019-06-26T04:40:11.659Z,4.85
2019-06-26T04:42:41.837Z,4.17
2019-06-26T04:45:12.602Z,4.05
2019-06-26T04:47:42.894Z,3.20
2019-06-26T04:50:13.750Z,4.50
2019-06-26T04:52:43.962Z,5.00
2019-06-26T04:55:14.302Z,6.92
2019-06-26T04:57:44.828Z,4.83
2019-06-26T05:00:15.863Z,4.62
2019-06-26T05:02:46.104Z,4.62
2019-06-26T05:05:17.999Z,3.98
2019-06-26T05:07:48.303Z,3.60
2019-06-26T05:10:19.231Z,3.76
2019-06-26T05:12:49.454Z,4.40
2019-06-26T05:15:21.172Z,4.20
2019-06-26T05:17:51.507Z,4.60
2019-06-26T05:20:22.758Z,4.25
2019-06-26T05:22:53.402Z,4.08
2019-06-26T05:25:23.792Z,3.85
2019-06-26T05:27:54.394Z,3.83
2019-06-26T05:30:25.181Z,3.67
2019-06-26T05:32:55.430Z,4.00
2019-06-26T05:35:26.014Z,4.40
2019-06-26T05:37:56.267Z,3.80
2019-06-26T05:40:26.481Z,3.95
2019-06-26T05:42:56.741Z,3.80
2019-06-26T05:45:26.953Z,4.12
2019-06-26T05:47:57.521Z,4.45
2019-06-26T05:50:28.153Z,3.95
2019-06-26T05:52:58.863Z,4.20
2019-06-26T05:55:29.164Z,3.60
2019-06-26T05:57:59.669Z,3.95
2019-06-26T06:00:30.065Z,4.50
2019-06-26T06:03:00.266Z,3.98
2019-06-26T06:05:30.676Z,4.55
2019-06-26T06:08:01.229Z,3.90
2019-06-26T06:10:31.520Z,4.12
2019-06-26T06:13:01.752Z,3.30
2019-06-26T06:15:32.518Z,4.33
2019-06-26T06:18:02.928Z,4.20
2019-06-26T06:20:38.773Z,4.70
2019-06-26T06:23:10.064Z,4.17
2019-06-26T06:25:40.741Z,4.50
2019-06-26T06:28:11.270Z,5.03
2019-06-26T06:30:42.248Z,4.67
2019-06-26T06:33:12.862Z,4.35
2019-06-26T06:35:44.128Z,4.30
2019-06-26T06:38:14.838Z,4.50
2019-06-26T06:40:46.122Z,4.20
2019-06-26T06:43:16.975Z,4.72
2019-06-26T06:45:47.926Z,4.47
2019-06-26T06:48:18.600Z,4.47
2019-06-26T06:50:49.022Z,4.63
2019-06-26T06:53:19.285Z,3.90
2019-06-26T06:55:49.589Z,3.80
2019-06-26T06:58:19.829Z,4.45
2019-06-26T07:00:50.179Z,3.85
2019-06-26T07:03:20.884Z,4.25
2019-06-26T07:05:51.047Z,4.05
2019-06-26T07:08:21.304Z,3.33
2019-06-26T07:10:51.639Z,3.75
2019-06-26T07:13:21.999Z,4.05
2019-06-26T07:15:52.327Z,4.03
2019-06-26T07:18:22.870Z,3.80
2019-06-26T07:20:53.394Z,3.83
2019-06-26T07:23:24.263Z,4.10
2019-06-26T07:25:54.622Z,3.83
2019-06-26T07:28:25.277Z,3.90
2019-06-26T07:30:55.828Z,4.65
2019-06-26T07:33:26.143Z,3.85
2019-06-26T07:35:56.494Z,4.08
2019-06-26T07:38:26.737Z,3.98
2019-06-26T07:40:57.005Z,4.33
2019-06-26T07:43:27.569Z,3.95
2019-06-26T07:45:58.809Z,3.85
2019-06-26T07:48:29.381Z,4.22
2019-06-26T07:50:59.802Z,3.98
2019-06-26T07:53:30.320Z,3.72
2019-06-26T07:56:00.642Z,3.98
2019-06-26T07:58:30.918Z,4.15
2019-06-26T08:01:01.280Z,4.20
2019-06-26T08:03:31.604Z,3.75
2019-06-26T08:06:02.004Z,4.15
2019-06-26T08:08:32.367Z,3.85
2019-06-26T08:11:06.274Z,3.98
2019-06-26T08:13:34.687Z,3.85
2019-06-26T08:16:05.533Z,4.30
2019-06-26T08:18:35.871Z,3.92
2019-06-26T08:21:12.471Z,3.70
2019-06-26T08:23:39.516Z,3.90
2019-06-26T08:26:10.225Z,4.15
2019-06-26T08:28:41.036Z,3.77
2019-06-26T08:31:11.720Z,4.62
2019-06-26T08:33:42.262Z,4.67
2019-06-26T08:36:12.560Z,4.67
2019-06-26T08:38:42.847Z,3.90
2019-06-26T08:41:13.111Z,4.45
2019-06-26T08:43:43.428Z,4.35
2019-06-26T08:46:14.190Z,4.17
2019-06-26T08:48:44.428Z,4.47
2019-06-26T08:51:14.696Z,4.03
2019-06-26T08:53:44.974Z,4.97
2019-06-26T08:56:15.262Z,4.17
2019-06-26T08:58:45.598Z,4.70
2019-06-26T09:01:15.977Z,3.95
2019-06-26T09:03:46.247Z,4.33
2019-06-26T09:06:17.067Z,4.37
2019-06-26T09:08:47.395Z,4.05
2019-06-26T09:11:17.731Z,4.28
2019-06-26T09:13:48.104Z,4.08
2019-06-26T09:16:18.404Z,4.20
2019-06-26T09:18:49.297Z,4.22
2019-06-26T09:21:19.556Z,4.50
2019-06-26T09:23:49.813Z,5.15
2019-06-26T09:26:20.570Z,4.20
2019-06-26T09:28:51.222Z,5.03
2019-06-26T09:31:21.436Z,4.10
2019-06-26T09:33:52.078Z,4.50
2019-06-26T09:36:22.309Z,4.80
2019-06-26T09:38:52.574Z,4.97
2019-06-26T09:41:22.943Z,4.60
2019-06-26T09:43:53.360Z,4.62
2019-06-26T09:46:23.690Z,4.28
2019-06-26T09:48:54.062Z,4.42
2019-06-26T09:51:24.856Z,4.22
2019-06-26T09:53:55.238Z,3.92
2019-06-26T09:56:25.623Z,3.92
2019-06-26T09:58:56.014Z,4.42
2019-06-26T10:01:26.745Z,4.28
2019-06-26T10:03:57.406Z,4.20
2019-06-26T10:06:27.973Z,4.70
2019-06-26T10:08:58.539Z,3.85
2019-06-26T10:11:29.930Z,4.00
2019-06-26T10:14:00.305Z,3.75
2019-06-26T10:16:30.976Z,3.40
2019-06-26T10:19:10.132Z,3.92
2019-06-26T10:21:34.976Z,3.72
2019-06-26T10:24:05.279Z,4.03
2019-06-26T10:26:35.487Z,3.42
2019-06-26T10:29:06.048Z,3.80
2019-06-26T10:31:36.301Z,3.20
2019-06-26T10:34:09.851Z,3.47
2019-06-26T10:36:38.591Z,3.20
2019-06-26T10:39:09.599Z,3.50
2019-06-26T10:41:40.103Z,3.62
2019-06-26T10:44:10.390Z,3.47
2019-06-26T10:46:40.730Z,3.35
2019-06-26T10:49:25.827Z,3.55
2019-06-26T10:51:43.012Z,3.05
2019-06-26T10:54:13.282Z,3.20
2019-06-26T10:56:43.550Z,3.15
2019-06-26T10:59:13.809Z,3.47
2019-06-26T11:01:44.046Z,3.47
2019-06-26T11:04:14.390Z,2.90
2019-06-26T11:06:44.694Z,3.10
2019-06-26T11:09:15.341Z,3.27
2019-06-26T11:11:45.552Z,2.80
2019-06-26T11:14:15.917Z,4.00
2019-06-26T11:16:46.300Z,3.02
2019-06-26T11:19:16.608Z,3.20
2019-06-26T11:21:46.887Z,3.65
2019-06-26T11:24:17.395Z,3.65
2019-06-26T11:26:47.711Z,3.10
2019-06-26T11:29:18.003Z,2.85
2019-06-26T11:31:48.662Z,2.95
2019-06-26T11:34:19.317Z,3.22
2019-06-26T11:37:03.095Z,2.83
2019-06-26T11:39:21.810Z,3.62
2019-06-26T11:41:52.101Z,3.42
2019-06-26T11:44:22.611Z,2.93
2019-06-26T11:46:53.062Z,2.45
2019-06-26T11:49:23.567Z,3.22
2019-06-26T11:51:53.823Z,2.77
2019-06-26T11:54:24.112Z,3.47
2019-06-26T11:56:54.377Z,3.15
2019-06-26T11:59:24.674Z,3.30
2019-06-26T12:01:54.898Z,2.70
2019-06-26T12:04:25.165Z,3.95
2019-06-26T12:06:55.321Z,3.50
2019-06-26T12:09:25.525Z,3.25
2019-06-26T12:11:55.772Z,3.15
2019-06-26T12:14:26.354Z,3.05
2019-06-26T12:16:56.628Z,3.25
2019-06-26T12:19:26.794Z,2.77
2019-06-26T12:21:57.084Z,3.22
2019-06-26T12:24:27.243Z,3.10
2019-06-26T12:26:57.513Z,3.40
2019-06-26T12:29:27.992Z,3.60
2019-06-26T12:31:58.257Z,3.17
2019-06-26T12:34:28.461Z,2.80
2019-06-26T12:36:58.848Z,2.95
2019-06-26T12:39:29.112Z,3.12
2019-06-26T12:41:59.555Z,2.98
2019-06-26T12:44:29.870Z,2.85
2019-06-26T12:47:00.480Z,3.40
2019-06-26T12:49:30.736Z,3.57
2019-06-26T12:52:01.043Z,3.47
2019-06-26T12:54:31.279Z,3.27
2019-06-26T12:57:01.549Z,3.23
2019-06-26T12:59:31.866Z,3.33
2019-06-26T13:02:02.170Z,2.83
2019-06-26T13:04:32.396Z,3.77
2019-06-26T13:07:02.577Z,3.50
2019-06-26T13:09:32.995Z,3.12
2019-06-26T13:12:03.623Z,3.00
2019-06-26T13:14:33.903Z,3.55
2019-06-26T13:17:04.151Z,3.20
2019-06-26T13:19:34.359Z,3.20
2019-06-26T13:22:04.573Z,3.17
2019-06-26T13:24:34.829Z,3.17
2019-06-26T13:27:05.011Z,3.12
2019-06-26T13:29:35.217Z,3.40
2019-06-26T13:32:05.504Z,3.67
2019-06-26T13:34:35.998Z,3.20
2019-06-26T13:37:07.419Z,2.98
2019-06-26T13:39:37.846Z,3.17
2019-06-26T13:42:08.113Z,2.90
2019-06-26T13:44:38.604Z,3.57
2019-06-26T13:47:08.960Z,3.33
2019-06-26T13:49:39.582Z,3.40
2019-06-26T13:52:09.818Z,3.58
2019-06-26T13:54:40.688Z,2.98
2019-06-26T13:57:10.992Z,3.63
2019-06-26T13:59:41.229Z,3.08
2019-06-26T14:02:11.495Z,3.50
2019-06-26T14:04:41.739Z,3.42
2019-06-26T14:07:12.069Z,3.60
2019-06-26T14:09:42.569Z,3.58
2019-06-26T14:12:12.874Z,3.20
2019-06-26T14:14:56.956Z,3.15
2019-06-26T14:17:15.322Z,3.12
2019-06-26T14:19:45.520Z,3.47
2019-06-26T14:22:15.841Z,3.30
2019-06-26T14:24:46.080Z,2.80
2019-06-26T14:27:17.274Z,3.23
2019-06-26T14:29:47.647Z,3.53
2019-06-26T14:32:17.869Z,3.27
2019-06-26T14:34:48.439Z,2.83
2019-06-26T14:37:18.759Z,3.30
2019-06-26T14:39:49.255Z,3.70
2019-06-26T14:42:19.695Z,3.80
2019-06-26T14:44:52.706Z,3.65
2019-06-26T14:47:22.505Z,3.52
2019-06-26T14:49:52.684Z,3.27
2019-06-26T14:52:23.157Z,2.98
2019-06-26T14:54:53.363Z,3.50
2019-06-26T14:57:25.939Z,3.45
2019-06-26T14:59:55.735Z,3.85
2019-06-26T15:02:26.199Z,3.63
2019-06-26T15:04:56.523Z,3.40
2019-06-26T15:07:27.194Z,2.83
2019-06-26T15:09:58.819Z,2.90
2019-06-26T15:12:29.068Z,3.30
2019-06-26T15:14:59.350Z,2.55
2019-06-26T15:17:29.633Z,2.83
2019-06-26T15:20:00.016Z,2.72
2019-06-26T15:22:30.521Z,3.20
2019-06-26T15:25:00.750Z,3.42
2019-06-26T15:27:31.304Z,3.30
2019-06-26T15:30:01.591Z,2.90
2019-06-26T15:32:33.675Z,3.20
2019-06-26T15:35:04.583Z,2.92
2019-06-26T15:37:34.786Z,3.22
2019-06-26T15:40:06.611Z,3.72
2019-06-26T15:42:36.763Z,3.60
2019-06-26T15:45:08.631Z,3.20
2019-06-26T15:47:38.838Z,3.00
2019-06-26T15:50:10.871Z,2.92
2019-06-26T15:52:41.807Z,3.35
2019-06-26T15:55:12.327Z,3.15
2019-06-26T15:57:42.593Z,3.13
2019-06-26T16:00:13.586Z,3.25
2019-06-26T16:02:43.796Z,2.90
2019-06-26T16:05:14.231Z,3.33
2019-06-26T16:07:44.658Z,3.00
2019-06-26T16:10:14.912Z,2.87
2019-06-26T16:12:45.154Z,3.62
2019-06-26T16:15:15.904Z,2.80
2019-06-26T16:18:09.380Z,2.70
2019-06-26T16:20:40.543Z,3.10
2019-06-26T16:23:11.012Z,3.15
2019-06-26T16:25:41.816Z,3.37
2019-06-26T16:28:11.996Z,2.98
2019-06-26T16:30:42.573Z,2.98
2019-06-26T16:33:13.269Z,2.92
2019-06-26T16:35:43.458Z,3.17
2019-06-26T16:38:14.096Z,3.90
2019-06-26T16:40:44.571Z,3.25
2019-06-26T16:43:14.919Z,3.08
2019-06-26T16:45:45.591Z,3.10
2019-06-26T16:48:16.240Z,2.90
2019-06-26T16:50:46.504Z,2.85
2019-06-26T16:53:17.580Z,3.42
2019-06-26T16:55:47.988Z,2.75
2019-06-26T16:58:18.460Z,2.90
2019-06-26T17:00:48.737Z,3.72
2019-06-26T17:03:19.455Z,3.30
2019-06-26T17:05:49.698Z,3.10
2019-06-26T17:08:19.995Z,3.25
2019-06-26T17:10:50.242Z,3.15
2019-06-26T17:13:20.624Z,3.27
2019-06-26T17:15:50.881Z,3.27
2019-06-26T17:18:21.534Z,3.20
2019-06-26T17:20:52.047Z,3.12
2019-06-26T17:23:23.273Z,3.10
2019-06-26T17:25:53.566Z,3.60
2019-06-26T17:28:24.004Z,3.47
2019-06-26T17:30:54.267Z,3.52
2019-06-26T17:33:24.713Z,3.50
2019-06-26T17:35:55.559Z,2.95
2019-06-26T17:38:25.890Z,3.47
2019-06-26T17:40:59.321Z,3.75
2019-06-26T17:43:28.101Z,2.95
2019-06-26T17:45:58.379Z,3.45
2019-06-26T17:48:29.503Z,3.33
2019-06-26T17:50:59.763Z,3.17
2019-06-26T17:53:29.975Z,3.35
2019-06-26T17:56:00.193Z,3.55
2019-06-26T17:58:30.704Z,3.60
2019-06-26T18:01:01.351Z,3.67
2019-06-26T18:03:31.958Z,3.77
2019-06-26T18:06:02.488Z,3.58
2019-06-26T18:08:33.365Z,4.00
2019-06-26T18:11:03.671Z,3.77
2019-06-26T18:13:34.559Z,3.90
2019-06-26T18:16:05.213Z,3.67
2019-06-26T18:18:37.608Z,3.62
2019-06-26T18:21:08.472Z,3.65
2019-06-26T18:23:38.858Z,3.47
2019-06-26T18:26:13.506Z,4.03
2019-06-26T18:28:41.340Z,3.87
2019-06-26T18:31:11.808Z,4.00
2019-06-26T18:33:44.343Z,3.72
2019-06-26T18:36:14.419Z,3.75
2019-06-26T18:38:45.315Z,3.77
2019-06-26T18:41:18.633Z,3.80
2019-06-26T18:43:48.869Z,3.85
2019-06-26T18:46:19.667Z,3.75
2019-06-26T18:48:49.846Z,4.70
2019-06-26T18:51:20.528Z,4.75
2019-06-26T18:53:53.905Z,4.55
2019-06-26T18:56:23.121Z,4.25
2019-06-26T18:58:53.451Z,4.70
2019-06-26T19:01:24.167Z,5.08
2019-06-26T19:03:54.740Z,5.50
2019-06-26T19:06:26.366Z,4.72
2019-06-26T19:08:56.700Z,5.43
2019-06-26T19:11:27.384Z,4.67
2019-06-26T19:13:57.917Z,5.28
2019-06-26T19:16:28.393Z,4.65
2019-06-26T19:18:59.130Z,5.50
2019-06-26T19:21:29.440Z,5.25
2019-06-26T19:24:09.467Z,5.00
2019-06-26T19:26:32.322Z,4.58
2019-06-26T19:29:03.345Z,5.33
2019-06-26T19:31:33.650Z,4.75
2019-06-26T19:34:04.133Z,5.08
2019-06-26T19:36:49.069Z,4.65
2019-06-26T19:39:08.193Z,5.10
2019-06-26T19:41:38.537Z,4.92
2019-06-26T19:44:09.214Z,5.33
2019-06-26T19:46:41.893Z,4.60
2019-06-26T19:49:11.489Z,4.53
2019-06-26T19:51:41.761Z,3.85
2019-06-26T19:54:26.030Z,5.10
2019-06-26T19:56:43.945Z,5.08
2019-06-26T19:59:14.224Z,4.60
2019-06-26T20:01:44.579Z,5.35
2019-06-26T20:04:15.267Z,5.42
2019-06-26T20:06:47.166Z,5.20
2019-06-26T20:09:17.938Z,4.72
2019-06-26T20:11:49.332Z,5.43
2019-06-26T20:14:19.989Z,4.78
2019-06-26T20:16:50.540Z,4.33
2019-06-26T20:19:21.680Z,4.90
2019-06-26T20:21:52.806Z,4.70
2019-06-26T20:24:23.709Z,4.83
2019-06-26T20:26:54.377Z,4.05
2019-06-26T20:29:25.331Z,4.42
2019-06-26T20:31:55.724Z,4.50
2019-06-26T20:34:31.510Z,4.37
2019-06-26T20:37:01.866Z,4.47
2019-06-26T20:39:32.146Z,4.35
2019-06-26T20:42:02.808Z,4.53
2019-06-26T20:44:34.179Z,4.15
2019-06-26T20:47:04.474Z,4.15
2019-06-26T20:49:34.997Z,4.53
2019-06-26T20:52:05.448Z,3.83
2019-06-26T20:54:35.757Z,4.55
2019-06-26T20:57:06.527Z,4.37
2019-06-26T20:59:38.032Z,4.50
2019-06-26T21:02:08.492Z,4.70
2019-06-26T21:04:39.178Z,4.00
2019-06-26T21:07:09.755Z,4.37
2019-06-26T21:09:40.923Z,4.58
2019-06-26T21:12:12.975Z,4.30
2019-06-26T21:14:43.546Z,4.23
2019-06-26T21:17:13.763Z,4.30
2019-06-26T21:19:44.094Z,4.33
2019-06-26T21:22:14.447Z,4.25
2019-06-26T21:24:44.677Z,4.30
2019-06-26T21:27:15.408Z,4.47
2019-06-26T21:29:46.006Z,3.00
2019-06-26T21:32:16.349Z,4.03
2019-06-26T21:34:47.088Z,3.92
2019-06-26T21:37:17.379Z,3.95
2019-06-26T21:39:47.888Z,3.87
2019-06-26T21:42:18.325Z,5.40
2019-06-26T21:44:48.889Z,4.62
2019-06-26T21:47:19.557Z,4.17
2019-06-26T21:49:50.623Z,4.50
2019-06-26T21:52:21.793Z,3.80
2019-06-26T21:54:52.794Z,4.62
2019-06-26T21:57:41.168Z,4.53
2019-06-26T22:00:32.573Z,4.34
2019-06-26T22:03:21.031Z,4.25
2019-06-26T22:05:52.879Z,3.80
2019-06-26T22:08:41.549Z,4.33
2019-06-26T22:11:13.105Z,3.62
2019-06-26T22:13:43.660Z,4.67
2019-06-26T22:16:13.877Z,4.55
2019-06-26T22:18:44.247Z,5.08
2019-06-26T22:21:14.497Z,4.17
2019-06-26T22:23:44.983Z,4.70
2019-06-26T22:26:15.201Z,3.95
2019-06-26T22:28:45.731Z,4.95
2019-06-26T22:31:16.139Z,4.85
2019-06-26T22:33:46.736Z,4.72
2019-06-26T22:36:16.981Z,4.70
2019-06-26T22:38:47.271Z,4.25
2019-06-26T22:41:17.485Z,4.83
2019-06-26T22:43:47.797Z,4.60
2019-06-26T22:46:18.208Z,5.03
2019-06-26T22:48:48.526Z,4.25
2019-06-26T22:51:19.772Z,4.22
2019-06-26T22:53:50.331Z,4.53
2019-06-26T22:56:21.202Z,4.70
2019-06-26T22:58:51.804Z,4.30
2019-06-26T23:01:22.517Z,3.95
2019-06-26T23:03:52.725Z,5.00
2019-06-26T23:06:23.838Z,4.33
2019-06-26T23:11:34.097Z,4.33
2019-06-26T23:14:04.398Z,4.85
2019-06-26T23:16:34.681Z,4.28
2019-06-26T23:19:04.943Z,4.53
2019-06-26T23:21:36.275Z,4.65
2019-06-26T23:24:06.518Z,4.45
2019-06-26T23:26:36.996Z,4.47
2019-06-26T23:29:07.652Z,4.25
2019-06-26T23:31:38.001Z,5.28
2019-06-26T23:34:08.289Z,4.55
2019-06-26T23:36:38.576Z,4.50
2019-06-26T23:39:08.838Z,4.20
2019-06-26T23:41:39.053Z,4.45
2019-06-26T23:44:09.282Z,4.37
2019-06-26T23:46:39.505Z,4.73
2019-06-26T23:49:10.978Z,4.80
2019-06-26T23:51:41.851Z,4.78
2019-06-26T23:54:12.097Z,4.35
2019-06-26T23:56:42.455Z,5.45
2019-06-26T23:59:12.691Z,4.33
